createdAt,value
2017-10-09T00:00:27.637Z,0
2017-10-09T00:01:29.509Z,0
2017-10-09T00:02:31.386Z,0
2017-10-09T00:03:33.263Z,0
2017-10-09T00:04:35.079Z,0
2017-10-09T00:05:36.890Z,0
2017-10-09T00:06:38.789Z,0
2017-10-09T00:07:40.663Z,0
2017-10-09T00:08:42.538Z,0
2017-10-09T00:09:56.688Z,0
2017-10-09T00:10:58.563Z,0
2017-10-09T00:12:00.443Z,0
2017-10-09T00:13:02.335Z,0
2017-10-09T00:14:04.134Z,0
2017-10-09T00:15:05.946Z,0
2017-10-09T00:16:07.840Z,0
2017-10-09T00:17:09.714Z,0
2017-10-09T00:18:11.586Z,0
2017-10-09T00:19:25.746Z,0
2017-10-09T00:20:27.620Z,0
2017-10-09T00:21:29.497Z,0
2017-10-09T00:22:31.372Z,0
2017-10-09T00:23:33.187Z,0
2017-10-09T00:24:35.003Z,0
2017-10-09T00:25:36.873Z,0
2017-10-09T00:26:38.747Z,0
2017-10-09T00:27:40.634Z,0
2017-10-09T00:28:54.783Z,0
2017-10-09T00:29:56.657Z,0
2017-10-09T00:30:58.541Z,0
2017-10-09T00:32:00.419Z,0
2017-10-09T00:33:02.235Z,0
2017-10-09T00:34:04.050Z,0
2017-10-09T00:35:05.926Z,0
2017-10-09T00:36:07.811Z,0
2017-10-09T00:37:09.686Z,0
2017-10-09T00:38:23.885Z,0
2017-10-09T00:39:25.760Z,0
2017-10-09T00:40:27.636Z,0
2017-10-09T00:41:29.513Z,0
2017-10-09T00:42:31.328Z,0
2017-10-09T00:43:33.139Z,0
2017-10-09T00:44:35.015Z,0
2017-10-09T00:45:36.892Z,0
2017-10-09T00:46:38.764Z,0
2017-10-09T00:47:52.973Z,0
2017-10-09T00:48:54.861Z,0
2017-10-09T00:49:56.736Z,0
2017-10-09T00:50:58.610Z,0
2017-10-09T00:52:00.429Z,0
2017-10-09T00:53:02.238Z,0
2017-10-09T00:54:04.124Z,0
2017-10-09T00:55:05.999Z,0
2017-10-09T00:56:07.873Z,0
2017-10-09T00:57:22.025Z,0
2017-10-09T00:58:23.901Z,0
2017-10-09T00:59:25.780Z,0
2017-10-09T01:00:27.656Z,0
2017-10-09T01:01:29.470Z,0
2017-10-09T01:02:31.282Z,0
2017-10-09T01:03:33.159Z,0
2017-10-09T01:04:35.033Z,0
2017-10-09T01:05:36.910Z,0
2017-10-09T01:06:51.055Z,0
2017-10-09T01:07:52.941Z,0
2017-10-09T01:08:54.822Z,0
2017-10-09T01:09:56.697Z,0
2017-10-09T01:10:58.525Z,0
2017-10-09T01:12:00.331Z,0
2017-10-09T01:13:02.217Z,0
2017-10-09T01:14:04.090Z,0
2017-10-09T01:15:05.973Z,0
2017-10-09T01:16:20.120Z,0
2017-10-09T01:17:22.004Z,0
2017-10-09T01:18:23.880Z,0
2017-10-09T01:19:25.752Z,0
2017-10-09T01:20:27.566Z,0
2017-10-09T01:21:29.377Z,0
2017-10-09T01:22:31.250Z,0
2017-10-09T01:23:33.135Z,0
2017-10-09T01:24:35.010Z,0
2017-10-09T01:25:49.155Z,0
2017-10-09T01:26:51.040Z,0
2017-10-09T01:27:52.916Z,0
2017-10-09T01:28:54.790Z,0
2017-10-09T01:29:56.605Z,0
2017-10-09T01:30:58.416Z,0
2017-10-09T01:32:00.287Z,0
2017-10-09T01:33:02.161Z,0
2017-10-09T01:34:04.034Z,0
2017-10-09T01:35:18.181Z,0
2017-10-09T01:36:20.062Z,0
2017-10-09T01:37:21.945Z,0
2017-10-09T01:38:23.818Z,0
2017-10-09T01:39:25.641Z,0
2017-10-09T01:40:27.458Z,0
2017-10-09T01:41:29.332Z,0
2017-10-09T01:42:31.203Z,0
2017-10-09T01:43:33.078Z,0
2017-10-09T01:44:47.226Z,0
2017-10-09T01:45:49.108Z,0
2017-10-09T01:46:50.982Z,0
2017-10-09T01:47:52.857Z,0
2017-10-09T01:48:54.670Z,0
2017-10-09T01:49:56.485Z,0
2017-10-09T01:50:58.360Z,0
2017-10-09T01:52:00.237Z,0
2017-10-09T01:53:02.111Z,0
2017-10-09T01:54:16.257Z,0
2017-10-09T01:55:18.129Z,0
2017-10-09T01:56:20.003Z,0
2017-10-09T01:57:21.876Z,0
2017-10-09T01:58:23.688Z,0
2017-10-09T01:59:25.500Z,0
2017-10-09T02:00:27.374Z,0
2017-10-09T02:01:29.250Z,0
2017-10-09T02:02:31.123Z,0
2017-10-09T02:03:45.282Z,0
2017-10-09T02:04:47.157Z,0
2017-10-09T02:05:49.037Z,0
2017-10-09T02:06:50.912Z,0
2017-10-09T02:07:52.725Z,0
2017-10-09T02:08:54.538Z,0
2017-10-09T02:09:56.411Z,0
2017-10-09T02:10:58.294Z,0
2017-10-09T02:12:00.176Z,0
2017-10-09T02:13:14.315Z,0
2017-10-09T02:14:16.192Z,0
2017-10-09T02:15:18.066Z,0
2017-10-09T02:16:19.944Z,0
2017-10-09T02:17:21.756Z,0
2017-10-09T02:18:23.572Z,0
2017-10-09T02:19:25.446Z,0
2017-10-09T02:20:27.326Z,0
2017-10-09T02:21:29.196Z,0
2017-10-09T02:22:43.342Z,0
2017-10-09T02:23:45.211Z,0
2017-10-09T02:24:47.101Z,0
2017-10-09T02:25:48.980Z,0
2017-10-09T02:26:50.776Z,0
2017-10-09T02:27:52.599Z,0
2017-10-09T02:28:54.482Z,0
2017-10-09T02:29:56.347Z,0
2017-10-09T02:30:58.221Z,0
2017-10-09T02:32:12.369Z,0
2017-10-09T02:33:14.253Z,0
2017-10-09T02:34:16.126Z,0
2017-10-09T02:35:18.000Z,0
2017-10-09T02:36:19.811Z,0
2017-10-09T02:37:21.624Z,0
2017-10-09T02:38:23.500Z,0
2017-10-09T02:39:25.386Z,0
2017-10-09T02:40:27.331Z,0
2017-10-09T02:41:41.521Z,0
2017-10-09T02:42:43.394Z,0
2017-10-09T02:43:45.280Z,0
2017-10-09T02:44:47.155Z,0
2017-10-09T02:45:48.976Z,0
2017-10-09T02:46:50.787Z,0
2017-10-09T02:47:52.667Z,0
2017-10-09T02:48:54.541Z,0
2017-10-09T02:49:56.427Z,0
2017-10-09T02:51:10.575Z,0
2017-10-09T02:52:12.450Z,0
2017-10-09T02:53:14.336Z,0
2017-10-09T02:54:16.214Z,0
2017-10-09T02:55:18.025Z,0
2017-10-09T02:56:19.848Z,0
2017-10-09T02:57:21.727Z,0
2017-10-09T02:58:23.602Z,0
2017-10-09T02:59:25.481Z,0
2017-10-09T03:00:39.642Z,0
2017-10-09T03:01:41.518Z,0
2017-10-09T03:02:43.395Z,0
2017-10-09T03:03:45.275Z,0
2017-10-09T03:04:47.089Z,0
2017-10-09T03:05:48.901Z,0
2017-10-09T03:06:50.781Z,0
2017-10-09T03:07:52.660Z,0
2017-10-09T03:08:54.538Z,0
2017-10-09T03:10:08.694Z,0
2017-10-09T03:11:10.573Z,0
2017-10-09T03:12:12.453Z,0
2017-10-09T03:13:14.328Z,0
2017-10-09T03:14:16.138Z,0
2017-10-09T03:15:17.952Z,0
2017-10-09T03:16:19.828Z,0
2017-10-09T03:17:21.707Z,0
2017-10-09T03:18:23.585Z,0
2017-10-09T03:19:37.783Z,0
2017-10-09T03:20:39.657Z,0
2017-10-09T03:21:41.535Z,0
2017-10-09T03:22:43.491Z,0
2017-10-09T03:23:45.336Z,0
2017-10-09T03:24:47.148Z,0
2017-10-09T03:25:49.029Z,0
2017-10-09T03:26:50.908Z,0
2017-10-09T03:27:52.787Z,0
2017-10-09T03:29:06.917Z,0
2017-10-09T03:30:08.807Z,0
2017-10-09T03:31:10.682Z,0
2017-10-09T03:32:12.559Z,0
2017-10-09T03:33:14.371Z,0
2017-10-09T03:34:16.185Z,0
2017-10-09T03:35:18.061Z,0
2017-10-09T03:36:19.950Z,0
2017-10-09T03:37:21.826Z,0
2017-10-09T03:38:36.032Z,0
2017-10-09T03:39:37.909Z,0
2017-10-09T03:40:39.785Z,0
2017-10-09T03:41:41.661Z,0
2017-10-09T03:42:43.473Z,0
2017-10-09T03:43:45.296Z,0
2017-10-09T03:44:47.185Z,0
2017-10-09T03:45:49.062Z,0
2017-10-09T03:46:50.939Z,0
2017-10-09T03:48:05.089Z,0
2017-10-09T03:49:06.963Z,0
2017-10-09T03:50:08.844Z,0
2017-10-09T03:51:10.722Z,0
2017-10-09T03:52:12.535Z,0
2017-10-09T03:53:14.346Z,0
2017-10-09T03:54:16.225Z,0
2017-10-09T03:55:18.100Z,0
2017-10-09T03:56:19.988Z,0
2017-10-09T03:57:34.148Z,0
2017-10-09T03:58:36.023Z,0
2017-10-09T03:59:37.901Z,0
2017-10-09T04:00:39.778Z,0
2017-10-09T04:01:41.589Z,0
2017-10-09T04:02:43.428Z,0
2017-10-09T04:03:45.280Z,0
2017-10-09T04:04:47.158Z,0
2017-10-09T04:05:49.036Z,0
2017-10-09T04:07:03.191Z,0
2017-10-09T04:08:05.071Z,0
2017-10-09T04:09:06.951Z,0
2017-10-09T04:10:08.829Z,0
2017-10-09T04:11:10.645Z,0
2017-10-09T04:12:12.458Z,0
2017-10-09T04:13:14.350Z,0
2017-10-09T04:14:16.228Z,0
2017-10-09T04:15:18.107Z,0
2017-10-09T04:16:32.265Z,0
2017-10-09T04:17:34.141Z,0
2017-10-09T04:18:36.017Z,0
2017-10-09T04:19:37.905Z,0
2017-10-09T04:20:39.726Z,0
2017-10-09T04:21:41.550Z,0
2017-10-09T04:22:43.427Z,0
2017-10-09T04:23:45.264Z,0
2017-10-09T04:24:47.088Z,0
2017-10-09T04:26:01.242Z,0
2017-10-09T04:27:03.132Z,0
2017-10-09T04:28:05.022Z,0
2017-10-09T04:29:06.899Z,0
2017-10-09T04:30:08.737Z,0
2017-10-09T04:31:10.582Z,0
2017-10-09T04:32:12.482Z,0
2017-10-09T04:33:14.369Z,0
2017-10-09T04:34:16.256Z,0
2017-10-09T04:35:30.416Z,0
2017-10-09T04:36:32.291Z,0
2017-10-09T04:37:34.170Z,0
2017-10-09T04:38:36.047Z,0
2017-10-09T04:39:37.861Z,0
2017-10-09T04:40:39.684Z,0
2017-10-09T04:41:41.563Z,0
2017-10-09T04:42:43.442Z,0
2017-10-09T04:43:45.323Z,4
2017-10-09T04:44:59.468Z,0
2017-10-09T04:46:01.355Z,4
2017-10-09T04:47:03.234Z,4
2017-10-09T04:48:05.110Z,4
2017-10-09T04:49:06.929Z,4
2017-10-09T04:50:08.742Z,8
2017-10-09T04:51:10.632Z,8
2017-10-09T04:52:12.509Z,8
2017-10-09T04:53:14.389Z,12
2017-10-09T04:54:28.542Z,12
2017-10-09T04:55:30.429Z,16
2017-10-09T04:56:32.319Z,16
2017-10-09T04:57:34.203Z,24
2017-10-09T04:58:36.015Z,28
2017-10-09T04:59:37.843Z,32
2017-10-09T05:00:39.660Z,36
2017-10-09T05:01:41.475Z,44
2017-10-09T05:02:43.290Z,52
2017-10-09T05:03:57.439Z,60
2017-10-09T05:04:59.318Z,72
2017-10-09T05:06:01.206Z,88
2017-10-09T05:07:03.089Z,100
2017-10-09T05:08:04.901Z,120
2017-10-09T05:09:06.746Z,140
2017-10-09T05:10:08.631Z,152
2017-10-09T05:11:10.557Z,172
2017-10-09T05:12:12.456Z,188
2017-10-09T05:13:26.651Z,220
2017-10-09T05:14:28.557Z,240
2017-10-09T05:15:30.520Z,260
2017-10-09T05:16:32.433Z,296
2017-10-09T05:17:34.268Z,324
2017-10-09T05:18:36.085Z,344
2017-10-09T05:19:37.970Z,364
2017-10-09T05:20:39.889Z,376
2017-10-09T05:21:41.831Z,392
2017-10-09T05:22:56.000Z,388
2017-10-09T05:23:57.905Z,380
2017-10-09T05:24:59.785Z,400
2017-10-09T05:26:01.705Z,448
2017-10-09T05:27:03.532Z,480
2017-10-09T05:28:05.365Z,488
2017-10-09T05:29:07.275Z,556
2017-10-09T05:30:09.158Z,600
2017-10-09T05:31:11.048Z,668
2017-10-09T05:32:25.215Z,744
2017-10-09T05:33:27.096Z,836
2017-10-09T05:34:28.987Z,960
2017-10-09T05:35:30.872Z,1060
2017-10-09T05:36:32.690Z,1124
2017-10-09T05:37:34.508Z,1296
2017-10-09T05:38:36.389Z,1416
2017-10-09T05:39:38.282Z,1296
2017-10-09T05:40:40.176Z,1484
2017-10-09T05:41:54.335Z,1516
2017-10-09T05:42:56.213Z,1480
2017-10-09T05:43:58.104Z,1516
2017-10-09T05:44:59.987Z,1680
2017-10-09T05:46:01.807Z,1612
2017-10-09T05:47:03.624Z,1444
2017-10-09T05:48:05.521Z,1352
2017-10-09T05:49:07.398Z,1388
2017-10-09T05:50:09.282Z,1480
2017-10-09T05:51:23.442Z,1632
2017-10-09T05:52:25.324Z,1664
2017-10-09T05:53:27.208Z,1724
2017-10-09T05:54:29.089Z,1768
2017-10-09T05:55:30.918Z,1756
2017-10-09T05:56:32.751Z,1788
2017-10-09T05:57:34.633Z,1908
2017-10-09T05:58:36.517Z,2016
2017-10-09T05:59:38.401Z,2076
2017-10-09T06:00:52.582Z,1968
2017-10-09T06:01:54.463Z,1964
2017-10-09T06:02:56.346Z,2020
2017-10-09T06:03:58.242Z,2132
2017-10-09T06:05:00.069Z,2280
2017-10-09T06:06:01.890Z,2316
2017-10-09T06:07:03.775Z,2312
2017-10-09T06:08:05.808Z,2384
2017-10-09T06:09:07.691Z,2568
2017-10-09T06:10:21.855Z,2660
2017-10-09T06:11:23.736Z,2796
2017-10-09T06:12:25.618Z,3064
2017-10-09T06:13:27.514Z,2924
2017-10-09T06:14:29.345Z,2844
2017-10-09T06:15:31.164Z,2888
2017-10-09T06:16:33.048Z,3188
2017-10-09T06:17:34.931Z,3268
2017-10-09T06:18:36.817Z,3164
2017-10-09T06:19:51.023Z,3316
2017-10-09T06:20:52.905Z,3420
2017-10-09T06:21:54.797Z,3564
2017-10-09T06:22:56.690Z,3932
2017-10-09T06:23:58.517Z,3808
2017-10-09T06:25:00.335Z,3776
2017-10-09T06:26:02.224Z,3764
2017-10-09T06:27:04.108Z,3644
2017-10-09T06:28:06.005Z,3716
2017-10-09T06:29:20.189Z,3864
2017-10-09T06:30:22.065Z,4276
2017-10-09T06:31:23.951Z,4332
2017-10-09T06:32:25.835Z,3788
2017-10-09T06:33:27.653Z,3560
2017-10-09T06:34:29.485Z,3564
2017-10-09T06:35:31.372Z,3688
2017-10-09T06:36:33.255Z,3772
2017-10-09T06:37:35.139Z,3616
2017-10-09T06:38:49.302Z,3332
2017-10-09T06:39:51.189Z,3172
2017-10-09T06:40:53.069Z,3144
2017-10-09T06:41:54.969Z,3060
2017-10-09T06:42:56.788Z,3072
2017-10-09T06:43:58.608Z,3124
2017-10-09T06:45:00.494Z,3264
2017-10-09T06:46:02.376Z,3484
2017-10-09T06:47:04.262Z,3668
2017-10-09T06:48:18.413Z,3932
2017-10-09T06:49:20.294Z,4120
2017-10-09T06:50:22.178Z,4284
2017-10-09T06:51:24.062Z,4220
2017-10-09T06:52:25.878Z,3968
2017-10-09T06:53:27.708Z,3756
2017-10-09T06:54:29.592Z,3772
2017-10-09T06:55:31.475Z,3884
2017-10-09T06:56:33.359Z,4004
2017-10-09T06:57:47.525Z,3908
2017-10-09T06:58:49.407Z,3872
2017-10-09T06:59:51.351Z,3944
2017-10-09T07:00:53.245Z,4128
2017-10-09T07:01:55.064Z,4320
2017-10-09T07:02:56.892Z,3868
2017-10-09T07:03:58.778Z,3708
2017-10-09T07:05:00.661Z,3860
2017-10-09T07:06:02.543Z,4380
2017-10-09T07:07:16.760Z,4464
2017-10-09T07:08:18.642Z,4068
2017-10-09T07:09:20.523Z,3928
2017-10-09T07:10:22.409Z,3976
2017-10-09T07:11:24.226Z,3692
2017-10-09T07:12:26.046Z,3596
2017-10-09T07:13:27.930Z,3628
2017-10-09T07:14:29.823Z,3700
2017-10-09T07:15:31.712Z,3724
2017-10-09T07:16:45.864Z,3956
2017-10-09T07:17:47.748Z,4016
2017-10-09T07:18:49.630Z,4068
2017-10-09T07:19:51.515Z,4284
2017-10-09T07:20:53.332Z,4060
2017-10-09T07:21:55.150Z,4440
2017-10-09T07:22:57.045Z,4792
2017-10-09T07:23:58.927Z,5052
2017-10-09T07:25:00.812Z,5180
2017-10-09T07:26:15.014Z,5236
2017-10-09T07:27:16.897Z,6388
2017-10-09T07:28:18.779Z,5632
2017-10-09T07:29:20.666Z,6468
2017-10-09T07:30:22.484Z,8524
2017-10-09T07:31:24.315Z,5636
2017-10-09T07:32:26.201Z,5348
2017-10-09T07:33:28.087Z,5956
2017-10-09T07:34:29.982Z,8328
2017-10-09T07:35:44.147Z,9536
2017-10-09T07:36:46.030Z,8164
2017-10-09T07:37:47.916Z,5500
2017-10-09T07:38:49.802Z,6672
2017-10-09T07:39:51.634Z,6188
2017-10-09T07:40:53.459Z,5732
2017-10-09T07:41:55.342Z,4216
2017-10-09T07:42:57.227Z,4840
2017-10-09T07:43:59.112Z,6164
2017-10-09T07:45:13.277Z,4544
2017-10-09T07:46:15.162Z,4376
2017-10-09T07:47:17.046Z,5400
2017-10-09T07:48:18.934Z,6488
2017-10-09T07:49:20.755Z,7300
2017-10-09T07:50:22.593Z,7644
2017-10-09T07:51:24.469Z,7176
2017-10-09T07:52:26.365Z,5596
2017-10-09T07:53:28.262Z,5016
2017-10-09T07:54:42.429Z,5068
2017-10-09T07:55:44.316Z,4356
2017-10-09T07:56:46.198Z,4444
2017-10-09T07:57:48.084Z,4572
2017-10-09T07:58:49.918Z,5144
2017-10-09T07:59:51.751Z,4492
2017-10-09T08:00:53.640Z,4364
2017-10-09T08:01:55.525Z,4848
2017-10-09T08:02:57.413Z,4196
2017-10-09T08:04:11.571Z,4296
2017-10-09T08:05:13.454Z,4508
2017-10-09T08:06:15.338Z,4768
2017-10-09T08:07:17.234Z,5048
2017-10-09T08:08:19.047Z,4752
2017-10-09T08:09:20.885Z,4588
2017-10-09T08:10:22.773Z,5092
2017-10-09T08:11:24.659Z,5420
2017-10-09T08:12:26.553Z,5252
2017-10-09T08:13:40.706Z,5540
2017-10-09T08:14:42.589Z,4740
2017-10-09T08:15:44.474Z,4568
2017-10-09T08:16:46.362Z,4592
2017-10-09T08:17:48.185Z,4452
2017-10-09T08:18:50.006Z,4504
2017-10-09T08:19:51.889Z,4932
2017-10-09T08:20:53.773Z,5392
2017-10-09T08:21:55.657Z,5064
2017-10-09T08:23:09.861Z,4960
2017-10-09T08:24:11.741Z,4644
2017-10-09T08:25:13.622Z,4604
2017-10-09T08:26:15.507Z,4952
2017-10-09T08:27:17.327Z,4972
2017-10-09T08:28:19.150Z,5036
2017-10-09T08:29:21.036Z,4716
2017-10-09T08:30:22.919Z,4080
2017-10-09T08:31:24.804Z,3988
2017-10-09T08:32:39.010Z,4112
2017-10-09T08:33:40.892Z,4488
2017-10-09T08:34:42.775Z,5108
2017-10-09T08:35:44.661Z,4544
2017-10-09T08:36:46.483Z,4376
2017-10-09T08:37:48.305Z,4464
2017-10-09T08:38:50.189Z,4324
2017-10-09T08:39:52.076Z,4288
2017-10-09T08:40:53.964Z,4548
2017-10-09T08:42:08.120Z,4824
2017-10-09T08:43:10.008Z,5172
2017-10-09T08:44:11.893Z,5472
2017-10-09T08:45:13.773Z,5992
2017-10-09T08:46:15.590Z,6500
2017-10-09T08:47:17.425Z,5456
2017-10-09T08:48:19.311Z,5008
2017-10-09T08:49:21.193Z,4652
2017-10-09T08:50:23.082Z,4772
2017-10-09T08:51:37.234Z,4528
2017-10-09T08:52:39.119Z,4952
2017-10-09T08:53:41.002Z,4956
2017-10-09T08:54:42.888Z,4648
2017-10-09T08:55:44.711Z,4684
2017-10-09T08:56:46.533Z,5096
2017-10-09T08:57:48.421Z,5612
2017-10-09T08:58:50.305Z,5908
2017-10-09T08:59:52.191Z,5884
2017-10-09T09:01:06.358Z,6196
2017-10-09T09:02:08.240Z,6392
2017-10-09T09:03:10.123Z,6228
2017-10-09T09:04:12.012Z,6604
2017-10-09T09:05:13.830Z,6836
2017-10-09T09:06:15.674Z,8240
2017-10-09T09:07:17.559Z,9652
2017-10-09T09:08:19.452Z,9348
2017-10-09T09:09:21.335Z,9092
2017-10-09T09:10:35.489Z,9080
2017-10-09T09:11:37.372Z,8456
2017-10-09T09:12:39.256Z,7228
2017-10-09T09:13:41.139Z,5968
2017-10-09T09:14:42.964Z,5864
2017-10-09T09:15:44.788Z,7800
2017-10-09T09:16:46.675Z,9488
2017-10-09T09:17:48.561Z,9100
2017-10-09T09:18:50.457Z,8496
2017-10-09T09:20:04.614Z,6208
2017-10-09T09:21:06.496Z,6740
2017-10-09T09:22:08.380Z,5500
2017-10-09T09:23:10.266Z,5032
2017-10-09T09:24:12.104Z,4716
2017-10-09T09:25:13.928Z,4752
2017-10-09T09:26:15.813Z,5248
2017-10-09T09:27:17.705Z,6184
2017-10-09T09:28:19.600Z,5996
2017-10-09T09:29:33.803Z,5840
2017-10-09T09:30:35.687Z,5624
2017-10-09T09:31:37.573Z,5260
2017-10-09T09:32:39.458Z,5120
2017-10-09T09:33:41.289Z,5744
2017-10-09T09:34:43.110Z,6756
2017-10-09T09:35:44.994Z,8072
2017-10-09T09:36:46.878Z,7780
2017-10-09T09:37:48.762Z,6396
2017-10-09T09:39:02.933Z,6008
2017-10-09T09:40:04.814Z,6352
2017-10-09T09:41:06.697Z,6392
2017-10-09T09:42:08.581Z,6372
2017-10-09T09:43:10.400Z,6736
2017-10-09T09:44:12.235Z,8388
2017-10-09T09:45:14.118Z,9032
2017-10-09T09:46:16.010Z,9372
2017-10-09T09:47:17.897Z,10136
2017-10-09T09:48:32.099Z,8548
2017-10-09T09:49:33.982Z,7296
2017-10-09T09:50:35.875Z,6752
2017-10-09T09:51:37.760Z,7144
2017-10-09T09:52:39.580Z,8244
2017-10-09T09:53:41.404Z,9488
2017-10-09T09:54:43.290Z,9272
2017-10-09T09:55:45.174Z,10120
2017-10-09T09:56:47.058Z,9404
2017-10-09T09:58:01.226Z,9008
2017-10-09T09:59:03.110Z,8072
2017-10-09T10:00:04.994Z,7636
2017-10-09T10:01:06.880Z,6528
2017-10-09T10:02:08.700Z,5424
2017-10-09T10:03:10.521Z,5192
2017-10-09T10:04:12.405Z,5424
2017-10-09T10:05:14.285Z,5348
2017-10-09T10:06:16.168Z,4744
2017-10-09T10:07:30.327Z,4768
2017-10-09T10:08:32.209Z,5004
2017-10-09T10:09:34.091Z,5304
2017-10-09T10:10:35.975Z,5532
2017-10-09T10:11:37.797Z,5724
2017-10-09T10:12:39.619Z,6044
2017-10-09T10:13:41.502Z,6020
2017-10-09T10:14:43.383Z,6020
2017-10-09T10:15:45.265Z,6520
2017-10-09T10:16:59.436Z,7228
2017-10-09T10:18:01.320Z,8140
2017-10-09T10:19:03.204Z,8868
2017-10-09T10:20:05.088Z,9584
2017-10-09T10:21:06.909Z,11132
2017-10-09T10:22:08.745Z,11292
2017-10-09T10:23:10.631Z,10328
2017-10-09T10:24:12.513Z,9016
2017-10-09T10:25:14.396Z,7812
2017-10-09T10:26:28.555Z,8140
2017-10-09T10:27:30.438Z,9300
2017-10-09T10:28:32.332Z,10476
2017-10-09T10:29:34.220Z,10372
2017-10-09T10:30:36.040Z,8708
2017-10-09T10:31:37.873Z,8452
2017-10-09T10:32:39.758Z,8180
2017-10-09T10:33:41.673Z,8040
2017-10-09T10:34:43.556Z,8244
2017-10-09T10:35:57.724Z,8716
2017-10-09T10:36:59.607Z,9824
2017-10-09T10:38:01.493Z,12624
2017-10-09T10:39:03.376Z,12784
2017-10-09T10:40:05.201Z,12036
2017-10-09T10:41:07.023Z,11156
2017-10-09T10:42:08.908Z,11344
2017-10-09T10:43:10.791Z,9936
2017-10-09T10:44:12.676Z,9052
2017-10-09T10:45:26.833Z,9140
2017-10-09T10:46:28.716Z,9148
2017-10-09T10:47:30.597Z,8176
2017-10-09T10:48:32.479Z,6988
2017-10-09T10:49:34.311Z,7704
2017-10-09T10:50:36.144Z,9348
2017-10-09T10:51:38.032Z,10468
2017-10-09T10:52:39.917Z,10488
2017-10-09T10:53:41.800Z,8552
2017-10-09T10:54:56.019Z,7856
2017-10-09T10:55:57.901Z,8180
2017-10-09T10:56:59.783Z,7560
2017-10-09T10:58:01.665Z,8244
2017-10-09T10:59:03.500Z,8260
2017-10-09T11:00:05.333Z,9396
2017-10-09T11:01:07.222Z,8172
2017-10-09T11:02:09.105Z,9636
2017-10-09T11:03:10.991Z,10436
2017-10-09T11:04:25.162Z,11008
2017-10-09T11:05:27.043Z,11020
2017-10-09T11:06:28.929Z,10032
2017-10-09T11:07:30.813Z,8348
2017-10-09T11:08:32.635Z,7340
2017-10-09T11:09:34.460Z,6544
2017-10-09T11:10:36.343Z,4820
2017-10-09T11:11:38.225Z,4304
2017-10-09T11:12:40.108Z,4732
2017-10-09T11:13:54.267Z,4072
2017-10-09T11:14:56.148Z,3960
2017-10-09T11:15:58.029Z,4108
2017-10-09T11:16:59.922Z,4252
2017-10-09T11:18:01.743Z,4388
2017-10-09T11:19:03.565Z,4912
2017-10-09T11:20:05.459Z,5860
2017-10-09T11:21:07.344Z,6296
2017-10-09T11:22:09.229Z,6280
2017-10-09T11:23:23.378Z,8596
2017-10-09T11:24:25.200Z,9452
2017-10-09T11:25:27.083Z,9236
2017-10-09T11:26:28.969Z,5952
2017-10-09T11:27:30.956Z,4640
2017-10-09T11:28:32.790Z,5016
2017-10-09T11:29:34.613Z,5480
2017-10-09T11:30:36.495Z,5520
2017-10-09T11:31:38.786Z,4960
2017-10-09T11:32:52.992Z,4464
2017-10-09T11:33:54.883Z,4460
2017-10-09T11:34:56.766Z,4708
2017-10-09T11:35:58.655Z,4916
2017-10-09T11:37:00.477Z,5224
2017-10-09T11:38:02.302Z,5404
2017-10-09T11:39:04.188Z,5152
2017-10-09T11:40:06.073Z,4616
2017-10-09T11:41:07.958Z,4684
2017-10-09T11:42:22.127Z,4920
2017-10-09T11:43:24.016Z,5048
2017-10-09T11:44:25.897Z,5084
2017-10-09T11:45:27.784Z,5288
2017-10-09T11:46:29.609Z,6416
2017-10-09T11:47:31.434Z,7328
2017-10-09T11:48:33.320Z,7472
2017-10-09T11:49:35.203Z,8060
2017-10-09T11:50:37.088Z,6636
2017-10-09T11:51:51.254Z,5136
2017-10-09T11:52:53.136Z,5388
2017-10-09T11:53:55.020Z,6520
2017-10-09T11:54:56.902Z,7796
2017-10-09T11:55:58.734Z,7360
2017-10-09T11:57:00.560Z,6932
2017-10-09T11:58:02.450Z,8280
2017-10-09T11:59:04.332Z,8804
2017-10-09T12:00:06.212Z,9896
2017-10-09T12:01:20.372Z,9608
2017-10-09T12:02:22.249Z,8584
2017-10-09T12:03:24.137Z,7740
2017-10-09T12:04:26.065Z,6992
2017-10-09T12:05:27.887Z,7684
2017-10-09T12:06:29.708Z,7372
2017-10-09T12:07:31.593Z,7980
2017-10-09T12:08:33.473Z,8364
2017-10-09T12:09:35.357Z,7148
2017-10-09T12:10:49.526Z,7700
2017-10-09T12:11:51.407Z,6304
2017-10-09T12:12:53.298Z,5296
2017-10-09T12:13:55.196Z,6196
2017-10-09T12:14:57.029Z,7260
2017-10-09T12:15:58.844Z,8176
2017-10-09T12:17:00.729Z,6908
2017-10-09T12:18:02.611Z,7404
2017-10-09T12:19:04.493Z,8084
2017-10-09T12:20:18.652Z,8560
2017-10-09T12:21:20.536Z,9168
2017-10-09T12:22:22.417Z,9212
2017-10-09T12:23:24.299Z,7644
2017-10-09T12:24:26.129Z,6336
2017-10-09T12:25:27.956Z,6632
2017-10-09T12:26:29.840Z,6976
2017-10-09T12:27:31.725Z,6756
2017-10-09T12:28:33.607Z,6368
2017-10-09T12:29:47.774Z,6156
2017-10-09T12:30:49.655Z,7036
2017-10-09T12:31:51.539Z,7764
2017-10-09T12:32:53.425Z,6912
2017-10-09T12:33:55.247Z,7152
2017-10-09T12:34:57.084Z,6500
2017-10-09T12:35:58.972Z,6180
2017-10-09T12:37:00.853Z,6248
2017-10-09T12:38:02.738Z,6936
2017-10-09T12:39:16.895Z,8028
2017-10-09T12:40:18.776Z,7640
2017-10-09T12:41:20.661Z,7584
2017-10-09T12:42:22.543Z,6492
2017-10-09T12:43:24.376Z,5920
2017-10-09T12:44:26.210Z,5736
2017-10-09T12:45:28.096Z,5596
2017-10-09T12:46:29.977Z,5324
2017-10-09T12:47:31.860Z,5056
2017-10-09T12:48:46.080Z,4872
2017-10-09T12:49:47.956Z,4684
2017-10-09T12:50:49.838Z,4680
2017-10-09T12:51:51.721Z,4836
2017-10-09T12:52:53.543Z,4928
2017-10-09T12:53:55.366Z,4984
2017-10-09T12:54:57.247Z,5020
2017-10-09T12:55:59.130Z,5132
2017-10-09T12:57:01.014Z,5332
2017-10-09T12:58:15.172Z,5744
2017-10-09T12:59:17.052Z,6116
2017-10-09T13:00:18.936Z,6356
2017-10-09T13:01:20.819Z,6456
2017-10-09T13:02:22.652Z,6472
2017-10-09T13:03:24.483Z,6284
2017-10-09T13:04:26.363Z,6188
2017-10-09T13:05:28.249Z,6220
2017-10-09T13:06:30.132Z,6352
2017-10-09T13:07:44.301Z,6772
2017-10-09T13:08:46.182Z,6524
2017-10-09T13:09:48.077Z,5976
2017-10-09T13:10:49.963Z,5752
2017-10-09T13:11:51.796Z,5788
2017-10-09T13:12:53.633Z,5900
2017-10-09T13:13:55.512Z,6268
2017-10-09T13:14:57.398Z,6640
2017-10-09T13:15:59.283Z,6600
2017-10-09T13:17:13.444Z,6332
2017-10-09T13:18:15.328Z,5916
2017-10-09T13:19:17.212Z,6004
2017-10-09T13:20:19.090Z,6160
2017-10-09T13:21:20.923Z,6524
2017-10-09T13:22:22.758Z,6316
2017-10-09T13:23:24.645Z,5904
2017-10-09T13:24:26.529Z,5736
2017-10-09T13:25:28.415Z,5928
2017-10-09T13:26:42.592Z,6236
2017-10-09T13:27:44.483Z,6020
2017-10-09T13:28:46.367Z,5820
2017-10-09T13:29:48.256Z,5628
2017-10-09T13:30:50.080Z,5384
2017-10-09T13:31:51.905Z,5252
2017-10-09T13:32:53.789Z,5264
2017-10-09T13:33:55.673Z,5304
2017-10-09T13:34:57.558Z,5308
2017-10-09T13:36:11.716Z,5332
2017-10-09T13:37:13.595Z,5396
2017-10-09T13:38:15.823Z,5528
2017-10-09T13:39:17.713Z,5768
2017-10-09T13:40:19.532Z,6040
2017-10-09T13:41:21.362Z,6176
2017-10-09T13:42:23.238Z,6048
2017-10-09T13:43:25.122Z,5824
2017-10-09T13:44:27.002Z,6020
2017-10-09T13:45:41.160Z,6176
2017-10-09T13:46:43.047Z,6476
2017-10-09T13:47:44.928Z,6472
2017-10-09T13:48:46.814Z,6184
2017-10-09T13:49:48.634Z,5900
2017-10-09T13:50:50.470Z,4812
2017-10-09T13:51:52.358Z,4836
2017-10-09T13:52:54.242Z,4704
2017-10-09T13:53:56.200Z,4932
2017-10-09T13:55:10.373Z,4368
2017-10-09T13:56:12.254Z,4156
2017-10-09T13:57:14.135Z,3912
2017-10-09T13:58:16.029Z,3452
2017-10-09T13:59:17.862Z,2960
2017-10-09T14:00:19.691Z,2720
2017-10-09T14:01:21.580Z,2724
2017-10-09T14:02:23.459Z,2820
2017-10-09T14:03:25.344Z,2772
2017-10-09T14:04:39.506Z,2664
2017-10-09T14:05:41.438Z,2676
2017-10-09T14:06:43.337Z,2692
2017-10-09T14:07:45.220Z,2604
2017-10-09T14:08:47.043Z,2492
2017-10-09T14:09:48.867Z,2384
2017-10-09T14:10:50.791Z,2328
2017-10-09T14:11:52.647Z,2360
2017-10-09T14:12:54.531Z,2344
2017-10-09T14:14:08.689Z,2324
2017-10-09T14:15:10.642Z,2348
2017-10-09T14:16:12.498Z,2436
2017-10-09T14:17:14.379Z,2552
2017-10-09T14:18:16.210Z,2692
2017-10-09T14:19:18.046Z,2760
2017-10-09T14:20:19.933Z,2848
2017-10-09T14:21:21.816Z,2904
2017-10-09T14:22:23.704Z,2948
2017-10-09T14:23:37.860Z,3052
2017-10-09T14:24:39.744Z,3136
2017-10-09T14:25:41.626Z,3292
2017-10-09T14:26:43.511Z,3504
2017-10-09T14:27:45.335Z,3800
2017-10-09T14:28:47.158Z,3892
2017-10-09T14:29:49.046Z,4080
2017-10-09T14:30:50.934Z,4392
2017-10-09T14:40:19.974Z,4268